Darstellungsparameter: Aktuell verwendete Einstellungen:
Skalierung der Graphiken ... ?
xyx+y,   Skalierungsfaktor:      Skalierung: Modus: x, Faktor: 1
Darstellungszeitraum ... ?
Vom - - bis: - -   Zeitraum: 12.04.2019 - 14.04.2019
Min/Max/Avg-Anzeige ... ?
Zeige MMA aktuell
Zeige MMA Monat
Zeige MMA alles
Zeige --A aktuell
Zeige --A Monat
Zeige --A alles
Keine MMA-Anzeige
MMA:
Average (ber die Originaldaten)
MMA-Basis: 12.04.2019 - 14.04.2019
Quicknavigation für Darstellung... ?
Tage:      1T, 2T, 3T, 5T -1T -2T -3T -5T +1T +2T +3T +5T
Wochen: 1W, 2W, 3W -1W -2W -3W +1W +2W +3W
Monate: 1M, 3M, 6M -1M -3M -6M +1M +3M +6M
Jahre:    1J, 3J, 5J, 10J -1J -3J -5J -10J +1J +3J +5J +10J
Nutze für die Darstellung ... ?
Originaldaten oder Mittelwerte auf ...
Stundenbasis Tagesbasis Wochenbasis
Monatsbasis Jahresbasis      Datenbasis: Original-Daten
Darstellen als:
Statistik (Auto) Statistik J:M      Darstellung:
Zur Graphik,    zurück zur Übersicht aller Sensoren.
 
Tabellarische Datenbersicht: ?
 
Sensor: Nr:Datum:Temp:Abs-Feuchte:Windchill:Wind:
Aussen-T/F 1 12-04-2019 00:00:00 4.7 C 4.33 g/m*3 4.7 C 3.2 km/h
2 12-04-2019 00:05:00 4.5 C 4.27 g/m*3 4.5 C 3.2 km/h
3 12-04-2019 00:10:00 4.4 C 4.18 g/m*3 4.4 C 3.2 km/h
4 12-04-2019 00:15:00 4.3 C 4.15 g/m*3 2.78 C 6.4 km/h
5 12-04-2019 00:20:00 4.4 C 4.05 g/m*3 4.4 C 4.8 km/h
6 12-04-2019 00:25:00 4.4 C 4.18 g/m*3 2.9 C 6.4 km/h
7 12-04-2019 00:30:00 4.4 C 4.11 g/m*3 2.9 C 6.4 km/h
8 12-04-2019 00:35:00 4.5 C 4.08 g/m*3 2.13 C 9.7 km/h
9 12-04-2019 00:40:00 4.6 C 4.04 g/m*3 4.6 C 3.2 km/h
10 12-04-2019 00:45:00 4.6 C 3.97 g/m*3 3.13 C 6.4 km/h
11 12-04-2019 00:50:00 4.4 C 3.98 g/m*3 4.4 C 3.2 km/h
12 12-04-2019 00:55:00 4.4 C 4.05 g/m*3 2.4 C 8.1 km/h
13 12-04-2019 01:00:00 4.3 C 4.02 g/m*3 4.3 C 1.6 km/h
14 12-04-2019 01:05:00 4.2 C 3.93 g/m*3 4.2 C 4.8 km/h
15 12-04-2019 01:10:00 4.1 C 3.97 g/m*3 4.1 C 4.8 km/h
16 12-04-2019 01:15:00 4 C 4.01 g/m*3 4 C 1.6 km/h
17 12-04-2019 01:20:00 3.8 C 4.02 g/m*3 3.8 C 3.2 km/h
18 12-04-2019 01:25:00 3.6 C 4.02 g/m*3 3.6 C 3.2 km/h
19 12-04-2019 01:30:00 3.3 C 4.06 g/m*3 3.3 C 1.6 km/h
20 12-04-2019 01:35:00 3.1 C 4.01 g/m*3 3.1 C 4.8 km/h
21 12-04-2019 01:40:00 3 C 3.98 g/m*3 3 C 1.6 km/h
22 12-04-2019 01:45:00 3.1 C 4.07 g/m*3 0.87 C 8.1 km/h
23 12-04-2019 01:50:00 3.1 C 4.13 g/m*3 3.1 C 1.6 km/h
24 12-04-2019 01:55:00 2.9 C 4.07 g/m*3 2.9 C 3.2 km/h
25 12-04-2019 02:00:00 2.8 C 4.11 g/m*3 2.8 C 4.8 km/h
Sensor: Nr:Datum:Temp:Abs-Feuchte:Windchill:Wind:
Aussen-T/F 26 12-04-2019 02:05:00 2.6 C 4.05 g/m*3 2.6 C 3.2 km/h
27 12-04-2019 02:10:00 2.4 C 4.05 g/m*3 2.4 C 3.2 km/h
28 12-04-2019 02:15:00 2.3 C 4.03 g/m*3 2.3 C 3.2 km/h
29 12-04-2019 02:20:00 2.3 C 4.03 g/m*3 2.3 C 1.6 km/h
30 12-04-2019 02:25:00 2.2 C 4.06 g/m*3 2.2 C 0 km/h
31 12-04-2019 02:30:00 2.1 C 4.08 g/m*3 2.1 C 0 km/h
32 12-04-2019 02:35:00 2 C 4 g/m*3 2 C 0 km/h
33 12-04-2019 02:40:00 1.9 C 3.97 g/m*3 1.9 C 3.2 km/h
34 12-04-2019 02:45:00 1.8 C 3.95 g/m*3 1.8 C 3.2 km/h
35 12-04-2019 02:50:00 1.8 C 4 g/m*3 1.8 C 4.8 km/h
36 12-04-2019 02:55:00 1.7 C 3.97 g/m*3 1.7 C 3.2 km/h
37 12-04-2019 03:00:00 1.7 C 3.92 g/m*3 1.7 C 4.8 km/h
38 12-04-2019 03:05:00 1.6 C 3.95 g/m*3 1.6 C 3.2 km/h
39 12-04-2019 03:10:00 1.6 C 3.95 g/m*3 1.6 C 4.8 km/h
40 12-04-2019 03:15:00 1.6 C 3.95 g/m*3 1.6 C 3.2 km/h
41 12-04-2019 03:20:00 1.6 C 3.95 g/m*3 1.6 C 4.8 km/h
42 12-04-2019 03:25:00 1.6 C 3.95 g/m*3 1.6 C 0 km/h
43 12-04-2019 03:30:00 1.6 C 3.95 g/m*3 1.6 C 0 km/h
44 12-04-2019 03:35:00 1.6 C 3.95 g/m*3 1.6 C 3.2 km/h
45 12-04-2019 03:40:00 1.6 C 4 g/m*3 1.6 C 3.2 km/h
46 12-04-2019 03:45:00 1.6 C 4.06 g/m*3 1.6 C 1.6 km/h
47 12-04-2019 03:50:00 1.6 C 4.06 g/m*3 1.6 C 3.2 km/h
48 12-04-2019 03:55:00 1.6 C 4.11 g/m*3 1.6 C 4.8 km/h
49 12-04-2019 04:00:00 1.6 C 4.16 g/m*3 1.6 C 3.2 km/h
50 12-04-2019 04:05:00 1.7 C 4.14 g/m*3 1.7 C 1.6 km/h
Sensor: Nr:Datum:Temp:Abs-Feuchte:Windchill:Wind:
Aussen-T/F 51 12-04-2019 04:10:00 1.8 C 4.17 g/m*3 1.8 C 1.6 km/h
52 12-04-2019 04:15:00 1.9 C 4.25 g/m*3 1.9 C 0 km/h
53 12-04-2019 04:20:00 2.1 C 4.25 g/m*3 2.1 C 1.6 km/h
54 12-04-2019 04:25:00 2.2 C 4.22 g/m*3 2.2 C 0 km/h
55 12-04-2019 04:30:00 2.3 C 4.25 g/m*3 2.3 C 0 km/h
56 12-04-2019 04:35:00 2.3 C 4.25 g/m*3 2.3 C 0 km/h
57 12-04-2019 04:40:00 2.4 C 4.28 g/m*3 2.4 C 0 km/h
58 12-04-2019 04:45:00 2.5 C 4.25 g/m*3 2.5 C 0 km/h
59 12-04-2019 04:50:00 2.5 C 4.25 g/m*3 2.5 C 0 km/h
60 12-04-2019 04:55:00 2.6 C 4.22 g/m*3 2.6 C 0 km/h
61 12-04-2019 05:00:00 2.6 C 4.28 g/m*3 2.6 C 0 km/h
62 12-04-2019 05:05:00 2.6 C 4.22 g/m*3 2.6 C 0 km/h
63 12-04-2019 05:10:00 2.7 C 4.25 g/m*3 2.7 C 0 km/h
64 12-04-2019 05:15:00 2.7 C 4.31 g/m*3 2.7 C 0 km/h
65 12-04-2019 05:20:00 2.7 C 4.31 g/m*3 2.7 C 0 km/h
66 12-04-2019 05:25:00 2.7 C 4.31 g/m*3 2.7 C 0 km/h
67 12-04-2019 05:30:00 2.7 C 4.31 g/m*3 2.7 C 0 km/h
68 12-04-2019 05:35:00 2.7 C 4.25 g/m*3 2.7 C 0 km/h
69 12-04-2019 05:40:00 2.7 C 4.2 g/m*3 2.7 C 0 km/h
70 12-04-2019 05:45:00 2.8 C 4.22 g/m*3 2.8 C 0 km/h
71 12-04-2019 05:50:00 2.8 C 4.28 g/m*3 2.8 C 0 km/h
72 12-04-2019 05:55:00 2.8 C 4.28 g/m*3 2.8 C 0 km/h
73 12-04-2019 06:00:00 2.8 C 4.28 g/m*3 2.8 C 0 km/h
74 12-04-2019 06:05:00 2.8 C 4.28 g/m*3 2.8 C 0 km/h
75 12-04-2019 06:10:00 2.8 C 4.22 g/m*3 2.8 C 0 km/h
Sensor: Nr:Datum:Temp:Abs-Feuchte:Windchill:Wind:
Aussen-T/F 76 12-04-2019 06:15:00 2.9 C 4.25 g/m*3 2.9 C 0 km/h
77 12-04-2019 06:20:00 2.9 C 4.25 g/m*3 2.9 C 0 km/h
78 12-04-2019 06:25:00 3 C 4.1 g/m*3 3 C 0 km/h
79 12-04-2019 06:30:00 3.1 C 4.19 g/m*3 3.1 C 0 km/h
80 12-04-2019 06:35:00 3.1 C 4.13 g/m*3 3.1 C 0 km/h
81 12-04-2019 06:40:00 3.1 C 4.19 g/m*3 3.1 C 0 km/h
82 12-04-2019 06:45:00 3.1 C 4.19 g/m*3 3.1 C 0 km/h
83 12-04-2019 06:50:00 3.1 C 4.19 g/m*3 3.1 C 0 km/h
84 12-04-2019 06:55:00 3.1 C 4.25 g/m*3 3.1 C 0 km/h
85 12-04-2019 07:00:00 3.1 C 4.25 g/m*3 3.1 C 1.6 km/h
86 12-04-2019 07:05:00 3.1 C 4.25 g/m*3 3.1 C 0 km/h
87 12-04-2019 07:10:00 3.1 C 4.31 g/m*3 3.1 C 0 km/h
88 12-04-2019 07:15:00 3.1 C 4.25 g/m*3 3.1 C 0 km/h
89 12-04-2019 07:20:00 3.1 C 4.13 g/m*3 3.1 C 0 km/h
90 12-04-2019 07:25:00 3.2 C 4.04 g/m*3 3.2 C 3.2 km/h
91 12-04-2019 07:30:00 3.4 C 4.03 g/m*3 3.4 C 3.2 km/h
92 12-04-2019 07:35:00 3.6 C 4.02 g/m*3 1.98 C 6.4 km/h
93 12-04-2019 07:40:00 3.7 C 3.99 g/m*3 3.7 C 4.8 km/h
94 12-04-2019 07:45:00 3.9 C 4.04 g/m*3 3.9 C 4.8 km/h
95 12-04-2019 07:50:00 4.1 C 3.9 g/m*3 2.05 C 8.1 km/h
96 12-04-2019 07:55:00 4.3 C 3.96 g/m*3 4.3 C 4.8 km/h
97 12-04-2019 08:00:00 4.3 C 3.89 g/m*3 2.29 C 8.1 km/h
98 12-04-2019 08:05:00 4.4 C 3.92 g/m*3 2.01 C 9.7 km/h
99 12-04-2019 08:10:00 4.5 C 3.88 g/m*3 2.52 C 8.1 km/h
100 12-04-2019 08:15:00 4.6 C 3.84 g/m*3 1.91 C 11.3 km/h
Sensor: Nr:Datum:Temp:Abs-Feuchte:Windchill:Wind:
Aussen-T/F 101 12-04-2019 08:20:00 4.6 C 3.77 g/m*3 0.65 C 19.3 km/h
102 12-04-2019 08:25:00 4.6 C 3.84 g/m*3 1.61 C 12.9 km/h
103 12-04-2019 08:30:00 4.7 C 3.86 g/m*3 2.37 C 9.7 km/h
104 12-04-2019 08:35:00 4.7 C 3.8 g/m*3 2.37 C 9.7 km/h
105 12-04-2019 08:40:00 4.8 C 3.82 g/m*3 2.15 C 11.3 km/h
106 12-04-2019 08:45:00 4.8 C 3.82 g/m*3 1.85 C 12.9 km/h
107 12-04-2019 08:50:00 4.8 C 3.96 g/m*3 2.49 C 9.7 km/h
108 12-04-2019 08:55:00 4.8 C 3.82 g/m*3 2.15 C 11.3 km/h
109 12-04-2019 09:00:00 4.9 C 3.85 g/m*3 2.27 C 11.3 km/h
110 12-04-2019 09:05:00 4.9 C 3.85 g/m*3 2.27 C 11.3 km/h
111 12-04-2019 09:10:00 4.9 C 3.85 g/m*3 1.7 C 14.5 km/h
112 12-04-2019 09:15:00 4.9 C 3.85 g/m*3 2.99 C 8.1 km/h
113 12-04-2019 09:20:00 5 C 3.87 g/m*3 2.72 C 9.7 km/h
114 12-04-2019 09:25:00 5 C 3.81 g/m*3 2.09 C 12.9 km/h
115 12-04-2019 09:30:00 5.1 C 3.83 g/m*3 2.51 C 11.3 km/h
116 12-04-2019 09:35:00 5.1 C 3.76 g/m*3 1.71 C 16.1 km/h
117 12-04-2019 09:40:00 5.1 C 3.83 g/m*3 3.71 C 6.4 km/h
118 12-04-2019 09:45:00 5.1 C 3.83 g/m*3 2.51 C 11.3 km/h
119 12-04-2019 09:50:00 5.2 C 3.79 g/m*3 2.07 C 14.5 km/h
120 12-04-2019 09:55:00 5.2 C 3.72 g/m*3 1.83 C 16.1 km/h
121 12-04-2019 10:00:00 5.2 C 3.79 g/m*3 2.07 C 14.5 km/h
122 12-04-2019 10:05:00 5.3 C 3.81 g/m*3 2.75 C 11.3 km/h
123 12-04-2019 10:10:00 5.4 C 3.77 g/m*3 1.12 C 24.1 km/h
124 12-04-2019 10:15:00 5.4 C 3.7 g/m*3 1.12 C 24.1 km/h
125 12-04-2019 10:20:00 5.4 C 3.7 g/m*3 1.86 C 17.7 km/h
Sensor: Nr:Datum:Temp:Abs-Feuchte:Windchill:Wind:
Aussen-T/F 126 12-04-2019 10:25:00 5.4 C 3.7 g/m*3 1.47 C 20.9 km/h
127 12-04-2019 10:30:00 5.5 C 3.72 g/m*3 1.99 C 17.7 km/h
128 12-04-2019 10:35:00 5.6 C 3.75 g/m*3 2.57 C 14.5 km/h
129 12-04-2019 10:40:00 5.6 C 3.75 g/m*3 2.11 C 17.7 km/h
130 12-04-2019 10:45:00 5.7 C 3.7 g/m*3 2.24 C 17.7 km/h
131 12-04-2019 10:50:00 5.7 C 3.77 g/m*3 1.67 C 22.5 km/h
132 12-04-2019 10:55:00 5.7 C 3.7 g/m*3 2.45 C 16.1 km/h
133 12-04-2019 11:00:00 5.7 C 3.77 g/m*3 2.45 C 16.1 km/h
134 12-04-2019 11:05:00 5.8 C 3.72 g/m*3 1.63 C 24.1 km/h
135 12-04-2019 11:10:00 5.8 C 3.72 g/m*3 1.8 C 22.5 km/h
136 12-04-2019 11:15:00 5.8 C 3.72 g/m*3 2.58 C 16.1 km/h
137 12-04-2019 11:20:00 5.9 C 3.75 g/m*3 2.1 C 20.9 km/h
138 12-04-2019 11:25:00 5.9 C 3.68 g/m*3 1.93 C 22.5 km/h
139 12-04-2019 11:30:00 6 C 3.77 g/m*3 2.23 C 20.9 km/h
140 12-04-2019 11:35:00 6.1 C 3.8 g/m*3 2.18 C 22.5 km/h
141 12-04-2019 11:40:00 6.1 C 3.8 g/m*3 2.95 C 16.1 km/h
142 12-04-2019 11:45:00 6.2 C 3.82 g/m*3 2.66 C 19.3 km/h
143 12-04-2019 11:50:00 6.2 C 3.75 g/m*3 3.3 C 14.5 km/h
144 12-04-2019 11:55:00 6.3 C 3.78 g/m*3 2.98 C 17.7 km/h
145 12-04-2019 12:00:00 6.3 C 3.7 g/m*3 2.61 C 20.9 km/h
146 12-04-2019 12:05:00 6.4 C 3.87 g/m*3 3.55 C 14.5 km/h
147 12-04-2019 12:10:00 6.6 C 3.85 g/m*3 4.04 C 12.9 km/h
148 12-04-2019 12:15:00 6.7 C 3.8 g/m*3 3.92 C 14.5 km/h
149 12-04-2019 12:20:00 6.8 C 3.82 g/m*3 3.61 C 17.7 km/h
150 12-04-2019 12:25:00 6.8 C 3.9 g/m*3 4.56 C 11.3 km/h
Sensor: Nr:Datum:Temp:Abs-Feuchte:Windchill:Wind:
Aussen-T/F 151 12-04-2019 12:30:00 6.8 C 3.9 g/m*3 5.67 C 6.4 km/h
152 12-04-2019 12:35:00 7 C 3.87 g/m*3 4.53 C 12.9 km/h
153 12-04-2019 12:40:00 6.9 C 3.77 g/m*3 4.68 C 11.3 km/h
154 12-04-2019 12:45:00 6.9 C 3.77 g/m*3 4.16 C 14.5 km/h
155 12-04-2019 12:50:00 7.1 C 3.82 g/m*3 4.92 C 11.3 km/h
156 12-04-2019 12:55:00 7.1 C 3.74 g/m*3 3.62 C 20.9 km/h
157 12-04-2019 13:00:00 7.2 C 3.77 g/m*3 5.04 C 11.3 km/h
158 12-04-2019 13:05:00 7.2 C 3.69 g/m*3 4.53 C 14.5 km/h
159 12-04-2019 13:10:00 7 C 3.64 g/m*3 4.53 C 12.9 km/h
160 12-04-2019 13:15:00 7 C 3.72 g/m*3 5.46 C 8.1 km/h
161 12-04-2019 13:20:00 7.2 C 3.85 g/m*3 5.69 C 8.1 km/h
162 12-04-2019 13:25:00 7.3 C 3.79 g/m*3 5.16 C 11.3 km/h
163 12-04-2019 13:30:00 7.2 C 3.69 g/m*3 4.77 C 12.9 km/h
164 12-04-2019 13:35:00 7.1 C 3.67 g/m*3 4.41 C 14.5 km/h
165 12-04-2019 13:40:00 7.1 C 3.74 g/m*3 6.02 C 6.4 km/h
166 12-04-2019 13:45:00 7.2 C 3.77 g/m*3 4.31 C 16.1 km/h
167 12-04-2019 13:50:00 7.2 C 3.77 g/m*3 4.77 C 12.9 km/h
168 12-04-2019 13:55:00 7.2 C 3.77 g/m*3 4.77 C 12.9 km/h
169 12-04-2019 14:00:00 7.1 C 3.74 g/m*3 5.23 C 9.7 km/h
170 12-04-2019 14:05:00 7.2 C 3.77 g/m*3 4.77 C 12.9 km/h
171 12-04-2019 14:10:00 7.3 C 3.71 g/m*3 4.23 C 17.7 km/h
172 12-04-2019 14:15:00 7.2 C 3.69 g/m*3 4.77 C 12.9 km/h
173 12-04-2019 14:20:00 7.2 C 3.69 g/m*3 4.77 C 12.9 km/h
174 12-04-2019 14:25:00 7.3 C 3.71 g/m*3 5.16 C 11.3 km/h
175 12-04-2019 14:30:00 7.3 C 3.71 g/m*3 5.16 C 11.3 km/h
Sensor: Nr:Datum:Temp:Abs-Feuchte:Windchill:Wind:
Aussen-T/F 176 12-04-2019 14:35:00 7.4 C 3.74 g/m*3 4.56 C 16.1 km/h
177 12-04-2019 14:40:00 7.3 C 3.63 g/m*3 4.66 C 14.5 km/h
178 12-04-2019 14:45:00 7.3 C 3.63 g/m*3 5.16 C 11.3 km/h
179 12-04-2019 14:50:00 7.3 C 3.63 g/m*3 4.9 C 12.9 km/h
180 12-04-2019 14:55:00 7.3 C 3.63 g/m*3 4.9 C 12.9 km/h
181 12-04-2019 15:00:00 7.6 C 3.87 g/m*3 5.53 C 11.3 km/h
182 12-04-2019 15:05:00 7.7 C 3.81 g/m*3 5.94 C 9.7 km/h
183 12-04-2019 15:10:00 7.6 C 3.71 g/m*3 4.81 C 16.1 km/h
184 12-04-2019 15:15:00 7.6 C 3.71 g/m*3 5.53 C 11.3 km/h
185 12-04-2019 15:20:00 7.6 C 3.63 g/m*3 6.16 C 8.1 km/h
186 12-04-2019 15:25:00 7.6 C 3.71 g/m*3 5.02 C 14.5 km/h
187 12-04-2019 15:30:00 7.6 C 3.79 g/m*3 5.26 C 12.9 km/h
188 12-04-2019 15:35:00 7.6 C 3.79 g/m*3 5.53 C 11.3 km/h
189 12-04-2019 15:40:00 7.6 C 3.71 g/m*3 4.61 C 17.7 km/h
190 12-04-2019 15:45:00 7.4 C 3.66 g/m*3 4.78 C 14.5 km/h
191 12-04-2019 15:50:00 7.4 C 3.74 g/m*3 5.58 C 9.7 km/h
192 12-04-2019 15:55:00 7.5 C 3.68 g/m*3 4.9 C 14.5 km/h
193 12-04-2019 16:00:00 7.4 C 3.66 g/m*3 5.93 C 8.1 km/h
194 12-04-2019 16:05:00 7.5 C 3.76 g/m*3 4.9 C 14.5 km/h
195 12-04-2019 16:10:00 7.4 C 3.74 g/m*3 5.93 C 8.1 km/h
196 12-04-2019 16:15:00 7.4 C 3.74 g/m*3 4.56 C 16.1 km/h
197 12-04-2019 16:20:00 7.4 C 3.74 g/m*3 5.28 C 11.3 km/h
198 12-04-2019 16:25:00 7.4 C 3.82 g/m*3 5.28 C 11.3 km/h
199 12-04-2019 16:30:00 7.3 C 3.71 g/m*3 4.44 C 16.1 km/h
200 12-04-2019 16:35:00 7.2 C 3.77 g/m*3 5.35 C 9.7 km/h
Sensor: Nr:Datum:Temp:Abs-Feuchte:Windchill:Wind:
Aussen-T/F 201 12-04-2019 16:40:00 7.2 C 3.77 g/m*3 5.35 C 9.7 km/h
202 12-04-2019 16:45:00 7.2 C 3.69 g/m*3 5.04 C 11.3 km/h
203 12-04-2019 16:50:00 7.1 C 3.82 g/m*3 5.58 C 8.1 km/h
204 12-04-2019 16:55:00 7.1 C 3.67 g/m*3 4.92 C 11.3 km/h
205 12-04-2019 17:00:00 7.1 C 3.67 g/m*3 6.02 C 6.4 km/h
206 12-04-2019 17:05:00 7.1 C 3.74 g/m*3 5.23 C 9.7 km/h
207 12-04-2019 17:10:00 7.1 C 3.67 g/m*3 5.58 C 8.1 km/h
208 12-04-2019 17:15:00 7.1 C 3.67 g/m*3 6.02 C 6.4 km/h
209 12-04-2019 17:20:00 7.1 C 3.67 g/m*3 5.23 C 9.7 km/h
210 12-04-2019 17:25:00 7.1 C 3.59 g/m*3 5.58 C 8.1 km/h
211 12-04-2019 17:30:00 7.1 C 3.67 g/m*3 5.58 C 8.1 km/h
212 12-04-2019 17:35:00 7.1 C 3.67 g/m*3 5.58 C 8.1 km/h
213 12-04-2019 17:40:00 7.1 C 3.59 g/m*3 5.23 C 9.7 km/h
214 12-04-2019 17:45:00 7.1 C 3.59 g/m*3 5.58 C 8.1 km/h
215 12-04-2019 17:50:00 7.1 C 3.51 g/m*3 5.23 C 9.7 km/h
216 12-04-2019 17:55:00 7.1 C 3.67 g/m*3 4.92 C 11.3 km/h
217 12-04-2019 18:00:00 7.1 C 3.74 g/m*3 3.98 C 17.7 km/h
218 12-04-2019 18:05:00 7 C 3.87 g/m*3 4.53 C 12.9 km/h
219 12-04-2019 18:10:00 6.9 C 3.7 g/m*3 4.68 C 11.3 km/h
220 12-04-2019 18:15:00 6.9 C 3.7 g/m*3 4.68 C 11.3 km/h
221 12-04-2019 18:20:00 6.8 C 3.67 g/m*3 4.29 C 12.9 km/h
222 12-04-2019 18:25:00 6.8 C 3.67 g/m*3 4.56 C 11.3 km/h
223 12-04-2019 18:30:00 6.8 C 3.75 g/m*3 5.22 C 8.1 km/h
224 12-04-2019 18:35:00 6.8 C 3.75 g/m*3 5.22 C 8.1 km/h
225 12-04-2019 18:40:00 6.8 C 3.82 g/m*3 4.04 C 14.5 km/h
Sensor: Nr:Datum:Temp:Abs-Feuchte:Windchill:Wind:
Aussen-T/F 226 12-04-2019 18:45:00 6.7 C 3.8 g/m*3 4.17 C 12.9 km/h
227 12-04-2019 18:50:00 6.7 C 3.8 g/m*3 4.44 C 11.3 km/h
228 12-04-2019 18:55:00 6.7 C 3.8 g/m*3 5.11 C 8.1 km/h
229 12-04-2019 19:00:00 6.7 C 3.88 g/m*3 5.11 C 8.1 km/h
230 12-04-2019 19:05:00 6.7 C 3.88 g/m*3 5.56 C 6.4 km/h
231 12-04-2019 19:10:00 6.7 C 3.88 g/m*3 4.44 C 11.3 km/h
232 12-04-2019 19:15:00 6.7 C 3.95 g/m*3 4.44 C 11.3 km/h
233 12-04-2019 19:20:00 6.6 C 3.93 g/m*3 4.99 C 8.1 km/h
234 12-04-2019 19:25:00 6.5 C 3.9 g/m*3 4.87 C 8.1 km/h
235 12-04-2019 19:30:00 6.5 C 3.9 g/m*3 4.51 C 9.7 km/h
236 12-04-2019 19:35:00 6.4 C 3.87 g/m*3 4.08 C 11.3 km/h
237 12-04-2019 19:40:00 6.4 C 3.87 g/m*3 4.08 C 11.3 km/h
238 12-04-2019 19:45:00 6.4 C 3.95 g/m*3 4.08 C 11.3 km/h
239 12-04-2019 19:50:00 6.4 C 3.95 g/m*3 3.8 C 12.9 km/h
240 12-04-2019 19:55:00 6.3 C 3.92 g/m*3 3.43 C 14.5 km/h
241 12-04-2019 20:00:00 6.3 C 3.92 g/m*3 4.64 C 8.1 km/h
242 12-04-2019 20:05:00 6.3 C 3.92 g/m*3 4.27 C 9.7 km/h
243 12-04-2019 20:10:00 6.3 C 3.85 g/m*3 4.64 C 8.1 km/h
244 12-04-2019 20:15:00 6.2 C 3.82 g/m*3 4.52 C 8.1 km/h
245 12-04-2019 20:20:00 6.2 C 3.9 g/m*3 4.15 C 9.7 km/h
246 12-04-2019 20:25:00 6.2 C 4.04 g/m*3 3.84 C 11.3 km/h
247 12-04-2019 20:30:00 6.1 C 4.02 g/m*3 4.04 C 9.7 km/h
248 12-04-2019 20:35:00 5.9 C 4.04 g/m*3 3.8 C 9.7 km/h
249 12-04-2019 20:40:00 5.9 C 4.18 g/m*3 4.17 C 8.1 km/h
250 12-04-2019 20:45:00 5.8 C 4.08 g/m*3 4.52 C 6.4 km/h
Sensor: Nr:Datum:Temp:Abs-Feuchte:Windchill:Wind:
Aussen-T/F 251 12-04-2019 20:50:00 5.8 C 4.08 g/m*3 4.52 C 6.4 km/h
252 12-04-2019 20:55:00 5.8 C 4.15 g/m*3 5.8 C 4.8 km/h
253 12-04-2019 21:00:00 5.8 C 4.15 g/m*3 4.05 C 8.1 km/h
254 12-04-2019 21:05:00 5.7 C 4.13 g/m*3 3.56 C 9.7 km/h
255 12-04-2019 21:10:00 5.7 C 4.13 g/m*3 4.4 C 6.4 km/h
256 12-04-2019 21:15:00 5.7 C 4.2 g/m*3 3.93 C 8.1 km/h
257 12-04-2019 21:20:00 5.6 C 4.24 g/m*3 4.29 C 6.4 km/h
258 12-04-2019 21:25:00 5.6 C 4.24 g/m*3 4.29 C 6.4 km/h
259 12-04-2019 21:30:00 5.6 C 4.31 g/m*3 4.29 C 6.4 km/h
260 12-04-2019 21:35:00 5.5 C 4.21 g/m*3 3.7 C 8.1 km/h
261 12-04-2019 21:40:00 5.5 C 4.21 g/m*3 3.7 C 8.1 km/h
262 12-04-2019 21:45:00 5.4 C 4.33 g/m*3 5.4 C 1.6 km/h
263 12-04-2019 21:50:00 5.3 C 4.37 g/m*3 5.3 C 1.6 km/h
264 12-04-2019 21:55:00 5.2 C 4.41 g/m*3 5.2 C 1.6 km/h
265 12-04-2019 22:00:00 5.1 C 4.38 g/m*3 5.1 C 0 km/h
266 12-04-2019 22:05:00 4.9 C 4.39 g/m*3 4.9 C 1.6 km/h
267 12-04-2019 22:10:00 4.7 C 4.33 g/m*3 4.7 C 0 km/h
268 12-04-2019 22:15:00 4.6 C 4.37 g/m*3 4.6 C 0 km/h
269 12-04-2019 22:20:00 4.5 C 4.34 g/m*3 4.5 C 0 km/h
270 12-04-2019 22:25:00 4.4 C 4.37 g/m*3 4.4 C 0 km/h
271 12-04-2019 22:30:00 4.3 C 4.35 g/m*3 4.3 C 0 km/h
272 12-04-2019 22:35:00 4.2 C 4.32 g/m*3 4.2 C 0 km/h
273 12-04-2019 22:40:00 4.2 C 4.32 g/m*3 4.2 C 0 km/h
274 12-04-2019 22:45:00 4.1 C 4.35 g/m*3 4.1 C 0 km/h
275 12-04-2019 22:50:00 3.9 C 4.29 g/m*3 3.9 C 0 km/h
Sensor: Nr:Datum:Temp:Abs-Feuchte:Windchill:Wind:
Aussen-T/F 276 12-04-2019 22:55:00 3.8 C 4.27 g/m*3 3.8 C 1.6 km/h
277 12-04-2019 23:00:00 3.8 C 4.27 g/m*3 3.8 C 0 km/h
278 12-04-2019 23:05:00 3.7 C 4.24 g/m*3 3.7 C 0 km/h
279 12-04-2019 23:10:00 3.7 C 4.24 g/m*3 3.7 C 0 km/h
280 12-04-2019 23:15:00 3.7 C 4.24 g/m*3 3.7 C 0 km/h
281 12-04-2019 23:20:00 3.6 C 4.27 g/m*3 3.6 C 0 km/h
282 12-04-2019 23:25:00 3.6 C 4.27 g/m*3 3.6 C 1.6 km/h
283 12-04-2019 23:30:00 3.6 C 4.27 g/m*3 3.6 C 0 km/h
284 12-04-2019 23:35:00 3.6 C 4.21 g/m*3 3.6 C 0 km/h
285 12-04-2019 23:40:00 3.6 C 4.27 g/m*3 3.6 C 0 km/h
286 12-04-2019 23:45:00 3.4 C 4.21 g/m*3 3.4 C 0 km/h
287 12-04-2019 23:50:00 3.4 C 4.21 g/m*3 3.4 C 0 km/h
288 12-04-2019 23:55:00 3.3 C 4.25 g/m*3 3.3 C 0 km/h
289 13-04-2019 00:00:00 3.2 C 4.28 g/m*3 3.2 C 0 km/h
290 13-04-2019 00:05:00 3.1 C 4.31 g/m*3 3.1 C 0 km/h
291 13-04-2019 00:10:00 3 C 4.28 g/m*3 3 C 0 km/h
292 13-04-2019 00:15:00 2.9 C 4.25 g/m*3 2.9 C 0 km/h
293 13-04-2019 00:20:00 2.9 C 4.25 g/m*3 2.9 C 0 km/h
294 13-04-2019 00:25:00 2.9 C 4.25 g/m*3 2.9 C 3.2 km/h
295 13-04-2019 00:30:00 2.9 C 4.25 g/m*3 2.9 C 0 km/h
296 13-04-2019 00:35:00 2.9 C 4.31 g/m*3 2.9 C 0 km/h
297 13-04-2019 00:40:00 2.9 C 4.31 g/m*3 2.9 C 3.2 km/h
298 13-04-2019 00:45:00 2.9 C 4.37 g/m*3 2.9 C 0 km/h
299 13-04-2019 00:50:00 2.9 C 4.37 g/m*3 2.9 C 0 km/h
300 13-04-2019 00:55:00 2.9 C 4.37 g/m*3 2.9 C 1.6 km/h
Sensor: Nr:Datum:Temp:Abs-Feuchte:Windchill:Wind:
Aussen-T/F 301 13-04-2019 01:00:00 2.9 C 4.31 g/m*3 2.9 C 4.8 km/h
302 13-04-2019 01:05:00 3 C 4.34 g/m*3 3 C 1.6 km/h
303 13-04-2019 01:10:00 3 C 4.34 g/m*3 3 C 0 km/h
304 13-04-2019 01:15:00 3 C 4.34 g/m*3 3 C 0 km/h
305 13-04-2019 01:20:00 2.9 C 4.31 g/m*3 2.9 C 3.2 km/h
306 13-04-2019 01:25:00 2.9 C 4.25 g/m*3 2.9 C 3.2 km/h
307 13-04-2019 01:30:00 2.8 C 4.28 g/m*3 2.8 C 4.8 km/h
308 13-04-2019 01:35:00 2.8 C 4.28 g/m*3 2.8 C 1.6 km/h
309 13-04-2019 01:40:00 2.8 C 4.28 g/m*3 2.8 C 3.2 km/h
310 13-04-2019 01:45:00 2.8 C 4.28 g/m*3 2.8 C 1.6 km/h
311 13-04-2019 01:50:00 2.8 C 4.34 g/m*3 2.8 C 0 km/h
312 13-04-2019 01:55:00 2.8 C 4.34 g/m*3 2.8 C 1.6 km/h
313 13-04-2019 02:00:00 2.7 C 4.37 g/m*3 2.7 C 0 km/h
314 13-04-2019 02:05:00 2.7 C 4.37 g/m*3 2.7 C 1.6 km/h
315 13-04-2019 02:10:00 2.7 C 4.37 g/m*3 2.7 C 3.2 km/h
316 13-04-2019 02:15:00 2.7 C 4.37 g/m*3 0.94 C 6.4 km/h
317 13-04-2019 02:20:00 2.7 C 4.43 g/m*3 0.94 C 6.4 km/h
318 13-04-2019 02:25:00 2.7 C 4.43 g/m*3 2.7 C 1.6 km/h
319 13-04-2019 02:30:00 2.7 C 4.37 g/m*3 2.7 C 0 km/h
320 13-04-2019 02:35:00 2.7 C 4.43 g/m*3 2.7 C 0 km/h
321 13-04-2019 02:40:00 2.6 C 4.4 g/m*3 2.6 C 0 km/h
322 13-04-2019 02:45:00 2.5 C 4.37 g/m*3 2.5 C 0 km/h
323 13-04-2019 02:50:00 2.4 C 4.4 g/m*3 2.4 C 0 km/h
324 13-04-2019 02:55:00 2.3 C 4.37 g/m*3 2.3 C 0 km/h
325 13-04-2019 03:00:00 2.2 C 4.34 g/m*3 2.2 C 0 km/h
Sensor: Nr:Datum:Temp:Abs-Feuchte:Windchill:Wind:
Aussen-T/F 326 13-04-2019 03:05:00 2.2 C 4.39 g/m*3 2.2 C 0 km/h
327 13-04-2019 03:10:00 2.2 C 4.39 g/m*3 2.2 C 0 km/h
328 13-04-2019 03:15:00 2.3 C 4.42 g/m*3 2.3 C 0 km/h
329 13-04-2019 03:20:00 2.3 C 4.42 g/m*3 2.3 C 1.6 km/h
330 13-04-2019 03:25:00 2.3 C 4.42 g/m*3 2.3 C 0 km/h
331 13-04-2019 03:30:00 2.3 C 4.42 g/m*3 2.3 C 0 km/h
332 13-04-2019 03:35:00 2.3 C 4.42 g/m*3 2.3 C 0 km/h
333 13-04-2019 03:40:00 2.4 C 4.45 g/m*3 2.4 C 0 km/h
334 13-04-2019 03:45:00 2.4 C 4.45 g/m*3 2.4 C 1.6 km/h
335 13-04-2019 03:50:00 2.4 C 4.45 g/m*3 2.4 C 0 km/h
336 13-04-2019 03:55:00 2.4 C 4.45 g/m*3 2.4 C 0 km/h
337 13-04-2019 04:00:00 2.3 C 4.42 g/m*3 2.3 C 1.6 km/h
338 13-04-2019 04:05:00 2.3 C 4.42 g/m*3 2.3 C 3.2 km/h
339 13-04-2019 04:10:00 2.4 C 4.4 g/m*3 0.05 C 8.1 km/h
340 13-04-2019 04:15:00 2.5 C 4.43 g/m*3 2.5 C 0 km/h
341 13-04-2019 04:20:00 2.6 C 4.51 g/m*3 2.6 C 0 km/h
342 13-04-2019 04:25:00 2.7 C 4.49 g/m*3 2.7 C 0 km/h
343 13-04-2019 04:30:00 2.7 C 4.54 g/m*3 2.7 C 0 km/h
344 13-04-2019 04:35:00 2.7 C 4.54 g/m*3 2.7 C 0 km/h
345 13-04-2019 04:40:00 2.7 C 4.49 g/m*3 2.7 C 1.6 km/h
346 13-04-2019 04:45:00 2.7 C 4.49 g/m*3 2.7 C 4.8 km/h
347 13-04-2019 04:50:00 2.8 C 4.52 g/m*3 2.8 C 4.8 km/h
348 13-04-2019 04:55:00 2.8 C 4.52 g/m*3 2.8 C 3.2 km/h
349 13-04-2019 05:00:00 2.9 C 4.55 g/m*3 2.9 C 1.6 km/h
350 13-04-2019 05:05:00 2.9 C 4.55 g/m*3 2.9 C 1.6 km/h
Sensor: Nr:Datum:Temp:Abs-Feuchte:Windchill:Wind:
Aussen-T/F 351 13-04-2019 05:10:00 2.8 C 4.52 g/m*3 2.8 C 1.6 km/h
352 13-04-2019 05:15:00 2.7 C 4.49 g/m*3 2.7 C 0 km/h
353 13-04-2019 05:20:00 2.7 C 4.49 g/m*3 2.7 C 0 km/h
354 13-04-2019 05:25:00 2.6 C 4.51 g/m*3 2.6 C 0 km/h
355 13-04-2019 05:30:00 2.4 C 4.45 g/m*3 2.4 C 0 km/h
356 13-04-2019 05:35:00 2.4 C 4.45 g/m*3 2.4 C 0 km/h
357 13-04-2019 05:40:00 2.3 C 4.48 g/m*3 2.3 C 0 km/h
358 13-04-2019 05:45:00 2.3 C 4.48 g/m*3 2.3 C 0 km/h
359 13-04-2019 05:50:00 2.3 C 4.48 g/m*3 2.3 C 0 km/h
360 13-04-2019 05:55:00 2.2 C 4.51 g/m*3 2.2 C 0 km/h
361 13-04-2019 06:00:00 2.2 C 4.51 g/m*3 2.2 C 0 km/h
362 13-04-2019 06:05:00 2.2 C 4.51 g/m*3 2.2 C 4.8 km/h
363 13-04-2019 06:10:00 2.2 C 4.56 g/m*3 2.2 C 0 km/h
364 13-04-2019 06:15:00 2.2 C 4.56 g/m*3 2.2 C 0 km/h
365 13-04-2019 06:20:00 2.3 C 4.59 g/m*3 2.3 C 0 km/h
366 13-04-2019 06:25:00 2.3 C 4.59 g/m*3 2.3 C 0 km/h
367 13-04-2019 06:30:00 2.3 C 4.59 g/m*3 2.3 C 0 km/h
368 13-04-2019 06:35:00 2.2 C 4.56 g/m*3 2.2 C 1.6 km/h
369 13-04-2019 06:40:00 2.3 C 4.59 g/m*3 2.3 C 3.2 km/h
370 13-04-2019 06:45:00 2.4 C 4.57 g/m*3 2.4 C 0 km/h
371 13-04-2019 06:50:00 2.4 C 4.57 g/m*3 2.4 C 0 km/h
372 13-04-2019 06:55:00 2.4 C 4.57 g/m*3 2.4 C 1.6 km/h
373 13-04-2019 07:00:00 2.4 C 4.57 g/m*3 2.4 C 0 km/h
374 13-04-2019 07:05:00 2.4 C 4.62 g/m*3 2.4 C 0 km/h
375 13-04-2019 07:10:00 2.4 C 4.62 g/m*3 2.4 C 0 km/h
Sensor: Nr:Datum:Temp:Abs-Feuchte:Windchill:Wind:
Aussen-T/F 376 13-04-2019 07:15:00 2.4 C 4.62 g/m*3 2.4 C 0 km/h
377 13-04-2019 07:20:00 2.3 C 4.59 g/m*3 2.3 C 3.2 km/h
378 13-04-2019 07:25:00 2.4 C 4.57 g/m*3 0.59 C 6.4 km/h
379 13-04-2019 07:30:00 2.4 C 4.57 g/m*3 2.4 C 1.6 km/h
380 13-04-2019 07:35:00 2.5 C 4.6 g/m*3 2.5 C 0 km/h
381 13-04-2019 07:40:00 2.6 C 4.63 g/m*3 2.6 C 0 km/h
382 13-04-2019 07:45:00 2.7 C 4.6 g/m*3 2.7 C 0 km/h
383 13-04-2019 07:50:00 2.7 C 4.6 g/m*3 0.94 C 6.4 km/h
384 13-04-2019 07:55:00 2.8 C 4.63 g/m*3 1.05 C 6.4 km/h
385 13-04-2019 08:00:00 2.9 C 4.67 g/m*3 2.9 C 4.8 km/h
386 13-04-2019 08:05:00 2.9 C 4.61 g/m*3 1.17 C 6.4 km/h
387 13-04-2019 08:10:00 2.9 C 4.61 g/m*3 2.9 C 4.8 km/h
388 13-04-2019 08:15:00 3 C 4.64 g/m*3 3 C 4.8 km/h
389 13-04-2019 08:20:00 3.1 C 4.67 g/m*3 3.1 C 4.8 km/h
390 13-04-2019 08:25:00 3.1 C 4.67 g/m*3 0.87 C 8.1 km/h
391 13-04-2019 08:30:00 3.2 C 4.64 g/m*3 1.51 C 6.4 km/h
392 13-04-2019 08:35:00 3.3 C 4.61 g/m*3 1.11 C 8.1 km/h
393 13-04-2019 08:40:00 3.2 C 4.58 g/m*3 1.51 C 6.4 km/h
394 13-04-2019 08:45:00 3.3 C 4.61 g/m*3 0.7 C 9.7 km/h
395 13-04-2019 08:50:00 3.3 C 4.61 g/m*3 1.11 C 8.1 km/h
396 13-04-2019 08:55:00 3.3 C 4.61 g/m*3 0.34 C 11.3 km/h
397 13-04-2019 09:00:00 3.3 C 4.61 g/m*3 1.63 C 6.4 km/h
398 13-04-2019 09:05:00 3.4 C 4.64 g/m*3 1.75 C 6.4 km/h
399 13-04-2019 09:10:00 3.4 C 4.58 g/m*3 1.23 C 8.1 km/h
400 13-04-2019 09:15:00 3.6 C 4.64 g/m*3 1.06 C 9.7 km/h
Sensor: Nr:Datum:Temp:Abs-Feuchte:Windchill:Wind:
Aussen-T/F 401 13-04-2019 09:20:00 3.7 C 4.61 g/m*3 2.09 C 6.4 km/h
402 13-04-2019 09:25:00 3.7 C 4.61 g/m*3 2.09 C 6.4 km/h
403 13-04-2019 09:30:00 3.7 C 4.49 g/m*3 0.23 C 14.5 km/h
404 13-04-2019 09:35:00 3.7 C 4.49 g/m*3 1.58 C 8.1 km/h
405 13-04-2019 09:40:00 3.7 C 4.55 g/m*3 2.09 C 6.4 km/h
406 13-04-2019 09:45:00 3.7 C 4.36 g/m*3 1.58 C 8.1 km/h
407 13-04-2019 09:50:00 3.7 C 4.42 g/m*3 3.7 C 3.2 km/h
408 13-04-2019 09:55:00 3.7 C 4.42 g/m*3 3.7 C 4.8 km/h
409 13-04-2019 10:00:00 3.8 C 4.45 g/m*3 3.8 C 4.8 km/h
410 13-04-2019 10:05:00 3.8 C 4.39 g/m*3 3.8 C 1.6 km/h
411 13-04-2019 10:10:00 4.1 C 4.42 g/m*3 4.1 C 3.2 km/h
412 13-04-2019 10:15:00 4.3 C 4.41 g/m*3 1.55 C 11.3 km/h
413 13-04-2019 10:20:00 4.7 C 4.4 g/m*3 2.37 C 9.7 km/h
414 13-04-2019 10:25:00 5 C 4.42 g/m*3 2.39 C 11.3 km/h
415 13-04-2019 10:30:00 5.2 C 4.34 g/m*3 3.34 C 8.1 km/h
416 13-04-2019 10:35:00 5.2 C 4.34 g/m*3 3.34 C 8.1 km/h
417 13-04-2019 10:40:00 5.3 C 4.3 g/m*3 3.46 C 8.1 km/h
418 13-04-2019 10:45:00 5.3 C 4.44 g/m*3 2.2 C 14.5 km/h
419 13-04-2019 10:50:00 5.2 C 4.54 g/m*3 3.34 C 8.1 km/h
420 13-04-2019 10:55:00 5.2 C 4.54 g/m*3 3.34 C 8.1 km/h
421 13-04-2019 11:00:00 5.2 C 4.61 g/m*3 3.34 C 8.1 km/h
422 13-04-2019 11:05:00 5.2 C 4.54 g/m*3 3.82 C 6.4 km/h
423 13-04-2019 11:10:00 5.2 C 4.34 g/m*3 3.82 C 6.4 km/h
424 13-04-2019 11:15:00 5.3 C 4.3 g/m*3 3.94 C 6.4 km/h
425 13-04-2019 11:20:00 5.2 C 4.13 g/m*3 3.34 C 8.1 km/h
Sensor: Nr:Datum:Temp:Abs-Feuchte:Windchill:Wind:
Aussen-T/F 426 13-04-2019 11:25:00 5.2 C 4.13 g/m*3 3.82 C 6.4 km/h
427 13-04-2019 11:30:00 5.3 C 4.16 g/m*3 3.46 C 8.1 km/h
428 13-04-2019 11:35:00 5.4 C 4.12 g/m*3 4.06 C 6.4 km/h
429 13-04-2019 11:40:00 5.4 C 4.12 g/m*3 5.4 C 3.2 km/h
430 13-04-2019 11:45:00 5.6 C 4.24 g/m*3 3.81 C 8.1 km/h
431 13-04-2019 11:50:00 5.7 C 4.2 g/m*3 3.23 C 11.3 km/h
432 13-04-2019 11:55:00 5.7 C 4.13 g/m*3 2.95 C 12.9 km/h
433 13-04-2019 12:00:00 5.7 C 4.13 g/m*3 5.7 C 4.8 km/h
434 13-04-2019 12:05:00 5.7 C 4.2 g/m*3 3.56 C 9.7 km/h
435 13-04-2019 12:10:00 5.6 C 3.96 g/m*3 2.11 C 17.7 km/h
436 13-04-2019 12:15:00 5.7 C 3.99 g/m*3 3.23 C 11.3 km/h
437 13-04-2019 12:20:00 5.8 C 3.94 g/m*3 3.68 C 9.7 km/h
438 13-04-2019 12:25:00 6.1 C 4.16 g/m*3 3.18 C 14.5 km/h
439 13-04-2019 12:30:00 6.1 C 4.16 g/m*3 3.72 C 11.3 km/h
440 13-04-2019 12:35:00 6.2 C 4.19 g/m*3 4.98 C 6.4 km/h
441 13-04-2019 12:40:00 6.2 C 4.34 g/m*3 3.84 C 11.3 km/h
442 13-04-2019 12:45:00 6.2 C 4.19 g/m*3 4.15 C 9.7 km/h
443 13-04-2019 12:50:00 6.2 C 4.27 g/m*3 3.3 C 14.5 km/h
444 13-04-2019 12:55:00 6.1 C 4.31 g/m*3 3.43 C 12.9 km/h
445 13-04-2019 13:00:00 6 C 4.5 g/m*3 4.28 C 8.1 km/h
446 13-04-2019 13:05:00 5.8 C 4.58 g/m*3 3.68 C 9.7 km/h
447 13-04-2019 13:10:00 5.6 C 4.67 g/m*3 3.44 C 9.7 km/h
448 13-04-2019 13:15:00 5.6 C 4.67 g/m*3 5.6 C 1.6 km/h
449 13-04-2019 13:20:00 5.6 C 4.67 g/m*3 5.6 C 4.8 km/h
450 13-04-2019 13:25:00 5.7 C 4.55 g/m*3 4.4 C 6.4 km/h
Sensor: Nr:Datum:Temp:Abs-Feuchte:Windchill:Wind:
Aussen-T/F 451 13-04-2019 13:30:00 5.8 C 4.44 g/m*3 2.81 C 14.5 km/h
452 13-04-2019 13:35:00 5.8 C 4.23 g/m*3 3.36 C 11.3 km/h
453 13-04-2019 13:40:00 5.7 C 4.34 g/m*3 2.69 C 14.5 km/h
454 13-04-2019 13:45:00 5.8 C 4.37 g/m*3 3.36 C 11.3 km/h
455 13-04-2019 13:50:00 5.9 C 4.25 g/m*3 3.48 C 11.3 km/h
456 13-04-2019 13:55:00 5.8 C 4.8 g/m*3 2.36 C 17.7 km/h
457 13-04-2019 14:00:00 5.5 C 4.78 g/m*3 3.32 C 9.7 km/h
458 13-04-2019 14:05:00 5.3 C 4.92 g/m*3 3.46 C 8.1 km/h
459 13-04-2019 14:10:00 5.2 C 4.89 g/m*3 2.34 C 12.9 km/h
460 13-04-2019 14:15:00 5.4 C 5.09 g/m*3 2.08 C 16.1 km/h
461 13-04-2019 14:20:00 5.4 C 5.23 g/m*3 1.66 C 19.3 km/h
462 13-04-2019 14:25:00 4.8 C 5.23 g/m*3 1.58 C 14.5 km/h
463 13-04-2019 14:30:00 4.4 C 5.16 g/m*3 1.36 C 12.9 km/h
464 13-04-2019 14:35:00 4.1 C 5.18 g/m*3 1 C 12.9 km/h
465 13-04-2019 14:40:00 4 C 5.21 g/m*3 4 C 3.2 km/h
466 13-04-2019 14:45:00 3.9 C 5.24 g/m*3 3.9 C 4.8 km/h
467 13-04-2019 14:50:00 4.1 C 5.38 g/m*3 4.1 C 1.6 km/h
468 13-04-2019 14:55:00 4.2 C 5.41 g/m*3 4.2 C 3.2 km/h
469 13-04-2019 15:00:00 4.4 C 5.35 g/m*3 4.4 C 3.2 km/h
470 13-04-2019 15:05:00 4.5 C 5.19 g/m*3 4.5 C 3.2 km/h
471 13-04-2019 15:10:00 4.7 C 5.33 g/m*3 4.7 C 0 km/h
472 13-04-2019 15:15:00 4.8 C 5.23 g/m*3 4.8 C 1.6 km/h
473 13-04-2019 15:20:00 5.3 C 5.2 g/m*3 5.3 C 4.8 km/h
474 13-04-2019 15:25:00 5.7 C 5.12 g/m*3 2.95 C 12.9 km/h
475 13-04-2019 15:30:00 6.2 C 5.44 g/m*3 3.84 C 11.3 km/h
Sensor: Nr:Datum:Temp:Abs-Feuchte:Windchill:Wind:
Aussen-T/F 476 13-04-2019 15:35:00 6.7 C 5.62 g/m*3 3.29 C 19.3 km/h
477 13-04-2019 15:40:00 6.6 C 5.44 g/m*3 3.79 C 14.5 km/h
478 13-04-2019 15:45:00 6.2 C 5.29 g/m*3 3.56 C 12.9 km/h
479 13-04-2019 15:50:00 6.1 C 5.11 g/m*3 4.4 C 8.1 km/h
480 13-04-2019 15:55:00 6.2 C 5.15 g/m*3 6.2 C 4.8 km/h
481 13-04-2019 16:00:00 6.3 C 5.03 g/m*3 4.64 C 8.1 km/h
482 13-04-2019 16:05:00 6.2 C 4.93 g/m*3 3.84 C 11.3 km/h
483 13-04-2019 16:10:00 6.4 C 4.99 g/m*3 4.75 C 8.1 km/h
484 13-04-2019 16:15:00 6.8 C 5.05 g/m*3 5.67 C 6.4 km/h
485 13-04-2019 16:20:00 7.1 C 4.99 g/m*3 4.65 C 12.9 km/h
486 13-04-2019 16:25:00 6.9 C 4.93 g/m*3 3.94 C 16.1 km/h
487 13-04-2019 16:30:00 6.5 C 4.65 g/m*3 3.92 C 12.9 km/h
488 13-04-2019 16:35:00 6.3 C 4.81 g/m*3 3.96 C 11.3 km/h
489 13-04-2019 16:40:00 6.3 C 5.11 g/m*3 2.61 C 20.9 km/h
490 13-04-2019 16:45:00 5.9 C 5.26 g/m*3 2.1 C 20.9 km/h
491 13-04-2019 16:50:00 5.2 C 5.37 g/m*3 1.4 C 19.3 km/h
492 13-04-2019 16:55:00 4.7 C 5.4 g/m*3 2.03 C 11.3 km/h
493 13-04-2019 17:00:00 4.3 C 5.38 g/m*3 1.89 C 9.7 km/h
494 13-04-2019 17:05:00 4.1 C 5.44 g/m*3 2.05 C 8.1 km/h
495 13-04-2019 17:10:00 3.9 C 5.37 g/m*3 2.32 C 6.4 km/h
496 13-04-2019 17:15:00 3.8 C 5.4 g/m*3 2.21 C 6.4 km/h
497 13-04-2019 17:20:00 3.8 C 5.46 g/m*3 3.8 C 0 km/h
498 13-04-2019 17:25:00 3.8 C 5.46 g/m*3 3.8 C 4.8 km/h
499 13-04-2019 17:30:00 3.9 C 5.49 g/m*3 3.9 C 3.2 km/h
500 13-04-2019 17:35:00 4.4 C 5.75 g/m*3 4.4 C 1.6 km/h
Sensor: Nr:Datum:Temp:Abs-Feuchte:Windchill:Wind:
Aussen-T/F 501 13-04-2019 17:40:00 4.9 C 5.74 g/m*3 4.9 C 4.8 km/h
502 13-04-2019 17:45:00 5.4 C 5.86 g/m*3 5.4 C 4.8 km/h
503 13-04-2019 17:50:00 6 C 5.88 g/m*3 3.92 C 9.7 km/h
504 13-04-2019 17:55:00 6.3 C 5.92 g/m*3 4.64 C 8.1 km/h
505 13-04-2019 18:00:00 6.8 C 6.04 g/m*3 5.67 C 6.4 km/h
506 13-04-2019 18:05:00 7.3 C 6.16 g/m*3 7.3 C 4.8 km/h
507 13-04-2019 18:10:00 7.7 C 6 g/m*3 7.7 C 3.2 km/h
508 13-04-2019 18:15:00 7.8 C 5.71 g/m*3 7.8 C 4.8 km/h
509 13-04-2019 18:20:00 7.4 C 5.57 g/m*3 6.37 C 6.4 km/h
510 13-04-2019 18:25:00 6.7 C 5.7 g/m*3 4.44 C 11.3 km/h
511 13-04-2019 18:30:00 5.8 C 5.52 g/m*3 3.36 C 11.3 km/h
512 13-04-2019 18:35:00 5.4 C 5.44 g/m*3 5.4 C 1.6 km/h
513 13-04-2019 18:40:00 5.3 C 5.61 g/m*3 5.3 C 1.6 km/h
514 13-04-2019 18:45:00 5.1 C 5.54 g/m*3 5.1 C 0 km/h
515 13-04-2019 18:50:00 5.1 C 5.47 g/m*3 5.1 C 0 km/h
516 13-04-2019 18:55:00 5.1 C 5.61 g/m*3 5.1 C 0 km/h
517 13-04-2019 19:00:00 5.2 C 5.58 g/m*3 5.2 C 0 km/h
518 13-04-2019 19:05:00 5.4 C 5.37 g/m*3 5.4 C 4.8 km/h
519 13-04-2019 19:10:00 5.7 C 5.41 g/m*3 5.7 C 3.2 km/h
520 13-04-2019 19:15:00 5.8 C 5.37 g/m*3 5.8 C 4.8 km/h
521 13-04-2019 19:20:00 5.7 C 5.34 g/m*3 5.7 C 3.2 km/h
522 13-04-2019 19:25:00 5.7 C 5.34 g/m*3 5.7 C 3.2 km/h
523 13-04-2019 19:30:00 5.6 C 5.44 g/m*3 5.6 C 0 km/h
524 13-04-2019 19:35:00 5.7 C 5.55 g/m*3 5.7 C 0 km/h
525 13-04-2019 19:40:00 5.7 C 5.62 g/m*3 5.7 C 1.6 km/h
Sensor: Nr:Datum:Temp:Abs-Feuchte:Windchill:Wind:
Aussen-T/F 526 13-04-2019 19:45:00 5.6 C 5.59 g/m*3 5.6 C 0 km/h
527 13-04-2019 19:50:00 5.6 C 5.59 g/m*3 5.6 C 0 km/h
528 13-04-2019 19:55:00 5.4 C 5.58 g/m*3 5.4 C 0 km/h
529 13-04-2019 20:00:00 5.3 C 5.54 g/m*3 5.3 C 0 km/h
530 13-04-2019 20:05:00 5.2 C 5.58 g/m*3 5.2 C 0 km/h
531 13-04-2019 20:10:00 5.1 C 5.54 g/m*3 5.1 C 1.6 km/h
532 13-04-2019 20:15:00 4.8 C 5.43 g/m*3 4.8 C 0 km/h
533 13-04-2019 20:20:00 4.7 C 5.33 g/m*3 4.7 C 4.8 km/h
534 13-04-2019 20:25:00 4.6 C 5.29 g/m*3 2.25 C 9.7 km/h
535 13-04-2019 20:30:00 4.5 C 5.19 g/m*3 4.5 C 4.8 km/h
536 13-04-2019 20:35:00 4.4 C 5.22 g/m*3 4.4 C 4.8 km/h
537 13-04-2019 20:40:00 4.4 C 5.29 g/m*3 4.4 C 3.2 km/h
538 13-04-2019 20:45:00 4.3 C 5.25 g/m*3 4.3 C 0 km/h
539 13-04-2019 20:50:00 4.2 C 5.28 g/m*3 4.2 C 1.6 km/h
540 13-04-2019 20:55:00 4.1 C 5.25 g/m*3 4.1 C 0 km/h
541 13-04-2019 21:00:00 4 C 5.28 g/m*3 4 C 0 km/h
542 13-04-2019 21:05:00 3.8 C 5.21 g/m*3 3.8 C 0 km/h
543 13-04-2019 21:10:00 3.7 C 5.17 g/m*3 3.7 C 0 km/h
544 13-04-2019 21:15:00 3.4 C 5.07 g/m*3 3.4 C 0 km/h
545 13-04-2019 21:20:00 3.3 C 5.04 g/m*3 3.3 C 0 km/h
546 13-04-2019 21:25:00 3.1 C 5.03 g/m*3 3.1 C 0 km/h
547 13-04-2019 21:30:00 2.9 C 4.96 g/m*3 2.9 C 0 km/h
548 13-04-2019 21:35:00 2.8 C 4.93 g/m*3 2.8 C 0 km/h
549 13-04-2019 21:40:00 2.7 C 4.89 g/m*3 2.7 C 0 km/h
550 13-04-2019 21:45:00 2.6 C 4.86 g/m*3 2.6 C 0 km/h
Sensor: Nr:Datum:Temp:Abs-Feuchte:Windchill:Wind:
Aussen-T/F 551 13-04-2019 21:50:00 2.4 C 4.8 g/m*3 2.4 C 0 km/h
552 13-04-2019 21:55:00 2.2 C 4.79 g/m*3 2.2 C 0 km/h
553 13-04-2019 22:00:00 2.1 C 4.76 g/m*3 2.1 C 0 km/h
554 13-04-2019 22:05:00 1.9 C 4.75 g/m*3 1.9 C 0 km/h
555 13-04-2019 22:10:00 1.8 C 4.71 g/m*3 1.8 C 0 km/h
556 13-04-2019 22:15:00 1.7 C 4.74 g/m*3 1.7 C 0 km/h
557 13-04-2019 22:20:00 1.6 C 4.7 g/m*3 1.6 C 0 km/h
558 13-04-2019 22:25:00 1.5 C 4.67 g/m*3 1.5 C 0 km/h
559 13-04-2019 22:30:00 1.4 C 4.69 g/m*3 1.4 C 0 km/h
560 13-04-2019 22:35:00 1.4 C 4.75 g/m*3 1.4 C 0 km/h
561 13-04-2019 22:40:00 1.5 C 4.78 g/m*3 1.5 C 0 km/h
562 13-04-2019 22:45:00 1.4 C 4.75 g/m*3 1.4 C 0 km/h
563 13-04-2019 22:50:00 1.3 C 4.72 g/m*3 1.3 C 0 km/h
564 13-04-2019 22:55:00 1.2 C 4.63 g/m*3 1.2 C 0 km/h
565 13-04-2019 23:00:00 1.2 C 4.68 g/m*3 1.2 C 0 km/h
566 13-04-2019 23:05:00 1.2 C 4.68 g/m*3 1.2 C 0 km/h
567 13-04-2019 23:10:00 1.2 C 4.74 g/m*3 1.2 C 0 km/h
568 13-04-2019 23:15:00 1.2 C 4.74 g/m*3 1.2 C 0 km/h
569 13-04-2019 23:20:00 1.1 C 4.7 g/m*3 1.1 C 0 km/h
570 13-04-2019 23:25:00 1.1 C 4.7 g/m*3 1.1 C 0 km/h
571 13-04-2019 23:30:00 1.1 C 4.7 g/m*3 1.1 C 0 km/h
572 13-04-2019 23:35:00 1 C 4.67 g/m*3 1 C 0 km/h
573 13-04-2019 23:40:00 0.9 C 4.64 g/m*3 0.9 C 0 km/h
574 13-04-2019 23:45:00 0.9 C 4.64 g/m*3 0.9 C 0 km/h
575 13-04-2019 23:50:00 0.8 C 4.61 g/m*3 0.8 C 0 km/h
Sensor: Nr:Datum:Temp:Abs-Feuchte:Windchill:Wind:
Aussen-T/F 576 13-04-2019 23:55:00 0.8 C 4.61 g/m*3 0.8 C 0 km/h
577 14-04-2019 00:00:00 0.8 C 4.61 g/m*3 0.8 C 0 km/h
578 14-04-2019 00:05:00 0.7 C 4.63 g/m*3 0.7 C 0 km/h
579 14-04-2019 00:10:00 0.6 C 4.54 g/m*3 0.6 C 0 km/h
580 14-04-2019 00:15:00 0.6 C 4.54 g/m*3 0.6 C 0 km/h
581 14-04-2019 00:20:00 0.4 C 4.53 g/m*3 0.4 C 0 km/h
582 14-04-2019 00:25:00 0.4 C 4.53 g/m*3 0.4 C 0 km/h
583 14-04-2019 00:30:00 0.4 C 4.53 g/m*3 0.4 C 0 km/h
584 14-04-2019 00:35:00 0.4 C 4.53 g/m*3 0.4 C 0 km/h
585 14-04-2019 00:40:00 0.4 C 4.53 g/m*3 0.4 C 0 km/h
586 14-04-2019 00:45:00 0.4 C 4.58 g/m*3 0.4 C 0 km/h
587 14-04-2019 00:50:00 0.3 C 4.55 g/m*3 0.3 C 0 km/h
588 14-04-2019 00:55:00 0.3 C 4.55 g/m*3 0.3 C 0 km/h
589 14-04-2019 01:00:00 0.3 C 4.55 g/m*3 0.3 C 0 km/h
590 14-04-2019 01:05:00 0.3 C 4.55 g/m*3 0.3 C 0 km/h
591 14-04-2019 01:10:00 0.3 C 4.55 g/m*3 0.3 C 0 km/h
592 14-04-2019 01:15:00 0.3 C 4.55 g/m*3 0.3 C 0 km/h
593 14-04-2019 01:20:00 0.3 C 4.6 g/m*3 0.3 C 0 km/h
594 14-04-2019 01:25:00 0.3 C 4.6 g/m*3 0.3 C 0 km/h
595 14-04-2019 01:30:00 0.4 C 4.63 g/m*3 0.4 C 0 km/h
596 14-04-2019 01:35:00 0.5 C 4.66 g/m*3 0.5 C 0 km/h
597 14-04-2019 01:40:00 0.6 C 4.7 g/m*3 0.6 C 0 km/h
598 14-04-2019 01:45:00 0.6 C 4.7 g/m*3 0.6 C 0 km/h
599 14-04-2019 01:50:00 0.7 C 4.73 g/m*3 0.7 C 0 km/h
600 14-04-2019 01:55:00 0.8 C 4.76 g/m*3 0.8 C 0 km/h
Sensor: Nr:Datum:Temp:Abs-Feuchte:Windchill:Wind:
Aussen-T/F 601 14-04-2019 02:00:00 0.9 C 4.85 g/m*3 0.9 C 0 km/h
602 14-04-2019 02:05:00 1 C 4.88 g/m*3 1 C 0 km/h
603 14-04-2019 02:10:00 1.1 C 4.86 g/m*3 1.1 C 0 km/h
604 14-04-2019 02:15:00 1.1 C 4.86 g/m*3 1.1 C 0 km/h
605 14-04-2019 02:20:00 1.2 C 4.89 g/m*3 1.2 C 0 km/h
606 14-04-2019 02:25:00 1.3 C 4.98 g/m*3 1.3 C 0 km/h
607 14-04-2019 02:30:00 1.3 C 4.98 g/m*3 1.3 C 0 km/h
608 14-04-2019 02:35:00 1.3 C 4.93 g/m*3 1.3 C 0 km/h
609 14-04-2019 02:40:00 1.4 C 4.96 g/m*3 1.4 C 0 km/h
610 14-04-2019 02:45:00 1.4 C 4.96 g/m*3 1.4 C 0 km/h
611 14-04-2019 02:50:00 1.4 C 4.96 g/m*3 1.4 C 0 km/h
612 14-04-2019 02:55:00 1.4 C 4.96 g/m*3 1.4 C 1.6 km/h
613 14-04-2019 03:00:00 1.5 C 4.99 g/m*3 1.5 C 3.2 km/h
614 14-04-2019 03:05:00 1.5 C 4.99 g/m*3 1.5 C 1.6 km/h
615 14-04-2019 03:10:00 1.5 C 4.99 g/m*3 1.5 C 0 km/h
616 14-04-2019 03:15:00 1.6 C 5.03 g/m*3 1.6 C 0 km/h
617 14-04-2019 03:20:00 1.6 C 5.03 g/m*3 1.6 C 0 km/h
618 14-04-2019 03:25:00 1.6 C 5.03 g/m*3 1.6 C 0 km/h
619 14-04-2019 03:30:00 1.6 C 5.03 g/m*3 1.6 C 0 km/h
620 14-04-2019 03:35:00 1.6 C 5.03 g/m*3 1.6 C 0 km/h
621 14-04-2019 03:40:00 1.6 C 5.03 g/m*3 1.6 C 0 km/h
622 14-04-2019 03:45:00 1.6 C 5.03 g/m*3 1.6 C 0 km/h
623 14-04-2019 03:50:00 1.6 C 5.03 g/m*3 1.6 C 0 km/h
624 14-04-2019 03:55:00 1.6 C 5.03 g/m*3 1.6 C 1.6 km/h
625 14-04-2019 04:00:00 1.6 C 5.03 g/m*3 1.6 C 0 km/h
Sensor: Nr:Datum:Temp:Abs-Feuchte:Windchill:Wind:
Aussen-T/F 626 14-04-2019 04:05:00 1.6 C 5.03 g/m*3 1.6 C 0 km/h
627 14-04-2019 04:10:00 1.6 C 5.03 g/m*3 1.6 C 0 km/h
628 14-04-2019 04:15:00 1.6 C 5.03 g/m*3 1.6 C 0 km/h
629 14-04-2019 04:20:00 1.6 C 5.03 g/m*3 1.6 C 0 km/h
630 14-04-2019 04:25:00 1.6 C 5.03 g/m*3 1.6 C 0 km/h
631 14-04-2019 04:30:00 1.6 C 5.03 g/m*3 1.6 C 0 km/h
632 14-04-2019 04:35:00 1.6 C 5.03 g/m*3 1.6 C 0 km/h
633 14-04-2019 04:40:00 1.7 C 5.12 g/m*3 1.7 C 0 km/h
634 14-04-2019 04:45:00 1.7 C 5.06 g/m*3 1.7 C 0 km/h
635 14-04-2019 04:50:00 1.7 C 5.06 g/m*3 1.7 C 1.6 km/h
636 14-04-2019 04:55:00 1.7 C 5.06 g/m*3 1.7 C 1.6 km/h
637 14-04-2019 05:00:00 1.7 C 5.06 g/m*3 1.7 C 0 km/h
638 14-04-2019 05:05:00 1.7 C 5.12 g/m*3 1.7 C 0 km/h
639 14-04-2019 05:10:00 1.7 C 5.12 g/m*3 1.7 C 1.6 km/h
640 14-04-2019 05:15:00 1.7 C 5.12 g/m*3 1.7 C 0 km/h
641 14-04-2019 05:20:00 1.7 C 5.12 g/m*3 1.7 C 1.6 km/h
642 14-04-2019 05:25:00 1.7 C 5.12 g/m*3 1.7 C 1.6 km/h
643 14-04-2019 05:30:00 1.6 C 5.08 g/m*3 1.6 C 1.6 km/h
644 14-04-2019 05:35:00 1.6 C 5.03 g/m*3 1.6 C 1.6 km/h
645 14-04-2019 05:40:00 1.4 C 4.96 g/m*3 1.4 C 0 km/h
646 14-04-2019 05:45:00 1.4 C 4.96 g/m*3 1.4 C 0 km/h
647 14-04-2019 05:50:00 1.3 C 4.98 g/m*3 1.3 C 0 km/h
648 14-04-2019 05:55:00 1.3 C 4.98 g/m*3 1.3 C 0 km/h
649 14-04-2019 06:00:00 1.3 C 4.98 g/m*3 1.3 C 0 km/h
650 14-04-2019 06:05:00 1.3 C 4.98 g/m*3 1.3 C 0 km/h
Sensor: Nr:Datum:Temp:Abs-Feuchte:Windchill:Wind:
Aussen-T/F 651 14-04-2019 06:10:00 1.3 C 4.98 g/m*3 1.3 C 0 km/h
652 14-04-2019 06:15:00 1.3 C 4.98 g/m*3 1.3 C 0 km/h
653 14-04-2019 06:20:00 1.3 C 4.98 g/m*3 1.3 C 0 km/h
654 14-04-2019 06:25:00 1.3 C 4.98 g/m*3 1.3 C 0 km/h
655 14-04-2019 06:30:00 1.3 C 4.98 g/m*3 1.3 C 0 km/h
656 14-04-2019 06:35:00 1.2 C 4.95 g/m*3 1.2 C 0 km/h
657 14-04-2019 06:40:00 1.2 C 4.95 g/m*3 1.2 C 0 km/h
658 14-04-2019 06:45:00 1.2 C 4.95 g/m*3 1.2 C 0 km/h
659 14-04-2019 06:50:00 1.2 C 4.95 g/m*3 1.2 C 0 km/h
660 14-04-2019 06:55:00 1.2 C 4.95 g/m*3 1.2 C 0 km/h
661 14-04-2019 07:00:00 1.2 C 5 g/m*3 1.2 C 0 km/h
662 14-04-2019 07:05:00 1.2 C 5 g/m*3 1.2 C 0 km/h
663 14-04-2019 07:10:00 1.2 C 5 g/m*3 1.2 C 0 km/h
664 14-04-2019 07:15:00 1.2 C 5 g/m*3 1.2 C 0 km/h
665 14-04-2019 07:20:00 1.2 C 5 g/m*3 1.2 C 0 km/h
666 14-04-2019 07:25:00 1.2 C 5 g/m*3 1.2 C 0 km/h
667 14-04-2019 07:30:00 1.2 C 5 g/m*3 1.2 C 0 km/h
668 14-04-2019 07:35:00 1.2 C 5 g/m*3 1.2 C 0 km/h
669 14-04-2019 07:40:00 1.2 C 5 g/m*3 1.2 C 0 km/h
670 14-04-2019 07:45:00 1.3 C 5.03 g/m*3 1.3 C 0 km/h
671 14-04-2019 07:50:00 1.3 C 5.03 g/m*3 1.3 C 0 km/h
672 14-04-2019 07:55:00 1.3 C 5.03 g/m*3 1.3 C 0 km/h
673 14-04-2019 08:00:00 1.3 C 5.03 g/m*3 1.3 C 0 km/h
674 14-04-2019 08:05:00 1.3 C 5.03 g/m*3 1.3 C 0 km/h
675 14-04-2019 08:10:00 1.3 C 5.03 g/m*3 1.3 C 0 km/h
Sensor: Nr:Datum:Temp:Abs-Feuchte:Windchill:Wind:
Aussen-T/F 676 14-04-2019 08:15:00 1.3 C 5.03 g/m*3 1.3 C 0 km/h
677 14-04-2019 08:20:00 1.4 C 5.07 g/m*3 1.4 C 0 km/h
678 14-04-2019 08:25:00 1.4 C 5.07 g/m*3 1.4 C 0 km/h
679 14-04-2019 08:30:00 1.5 C 5.1 g/m*3 1.5 C 0 km/h
680 14-04-2019 08:35:00 1.6 C 5.14 g/m*3 1.6 C 0 km/h
681 14-04-2019 08:40:00 1.6 C 5.14 g/m*3 1.6 C 0 km/h
682 14-04-2019 08:45:00 1.7 C 5.17 g/m*3 1.7 C 0 km/h
683 14-04-2019 08:50:00 1.7 C 5.17 g/m*3 1.7 C 0 km/h
684 14-04-2019 08:55:00 1.9 C 5.3 g/m*3 1.9 C 0 km/h
685 14-04-2019 09:00:00 2.1 C 5.37 g/m*3 2.1 C 0 km/h
686 14-04-2019 09:05:00 2.3 C 5.44 g/m*3 2.3 C 0 km/h
687 14-04-2019 09:10:00 2.4 C 5.48 g/m*3 2.4 C 1.6 km/h
688 14-04-2019 09:15:00 2.5 C 5.52 g/m*3 2.5 C 0 km/h
689 14-04-2019 09:20:00 2.7 C 5.59 g/m*3 2.7 C 0 km/h
690 14-04-2019 09:25:00 2.7 C 5.59 g/m*3 2.7 C 0 km/h
691 14-04-2019 09:30:00 2.8 C 5.63 g/m*3 2.8 C 0 km/h
692 14-04-2019 09:35:00 2.8 C 5.57 g/m*3 2.8 C 0 km/h
693 14-04-2019 09:40:00 2.8 C 5.57 g/m*3 2.8 C 0 km/h
694 14-04-2019 09:45:00 2.8 C 5.63 g/m*3 2.8 C 0 km/h
695 14-04-2019 09:50:00 2.9 C 5.67 g/m*3 2.9 C 0 km/h
696 14-04-2019 09:55:00 3.2 C 5.79 g/m*3 3.2 C 0 km/h
697 14-04-2019 10:00:00 3.3 C 5.82 g/m*3 3.3 C 1.6 km/h
698 14-04-2019 10:05:00 3.4 C 5.86 g/m*3 3.4 C 0 km/h
699 14-04-2019 10:10:00 3.7 C 5.98 g/m*3 3.7 C 3.2 km/h
700 14-04-2019 10:15:00 3.8 C 6.02 g/m*3 3.8 C 1.6 km/h
Sensor: Nr:Datum:Temp:Abs-Feuchte:Windchill:Wind:
Aussen-T/F 701 14-04-2019 10:20:00 3.9 C 6.06 g/m*3 3.9 C 1.6 km/h
702 14-04-2019 10:25:00 4.1 C 6.14 g/m*3 4.1 C 3.2 km/h
703 14-04-2019 10:30:00 4.1 C 6.08 g/m*3 2.55 C 6.4 km/h
704 14-04-2019 10:35:00 4.3 C 6.16 g/m*3 2.78 C 6.4 km/h
705 14-04-2019 10:40:00 4.5 C 6.18 g/m*3 2.52 C 8.1 km/h
706 14-04-2019 10:45:00 4.7 C 6.13 g/m*3 2.76 C 8.1 km/h
707 14-04-2019 10:50:00 4.9 C 6.14 g/m*3 3.48 C 6.4 km/h
708 14-04-2019 10:55:00 5.1 C 6.16 g/m*3 2.84 C 9.7 km/h
709 14-04-2019 11:00:00 5.3 C 6.24 g/m*3 3.46 C 8.1 km/h
710 14-04-2019 11:05:00 5.4 C 6.14 g/m*3 5.4 C 4.8 km/h
711 14-04-2019 11:10:00 5.7 C 6.4 g/m*3 5.7 C 0 km/h
712 14-04-2019 11:15:00 5.8 C 6.38 g/m*3 4.52 C 6.4 km/h
713 14-04-2019 11:20:00 5.8 C 6.16 g/m*3 5.8 C 4.8 km/h
714 14-04-2019 11:25:00 5.8 C 6.09 g/m*3 5.8 C 4.8 km/h
715 14-04-2019 11:30:00 6 C 5.95 g/m*3 3.6 C 11.3 km/h
716 14-04-2019 11:35:00 6.2 C 6.1 g/m*3 3.56 C 12.9 km/h
717 14-04-2019 11:40:00 6.3 C 6.07 g/m*3 4.27 C 9.7 km/h
718 14-04-2019 11:45:00 6.4 C 6.04 g/m*3 5.21 C 6.4 km/h
719 14-04-2019 11:50:00 6.6 C 6.11 g/m*3 6.6 C 1.6 km/h
720 14-04-2019 11:55:00 6.8 C 5.97 g/m*3 5.22 C 8.1 km/h
721 14-04-2019 12:00:00 6.9 C 5.7 g/m*3 4.68 C 11.3 km/h
722 14-04-2019 12:05:00 7.1 C 5.69 g/m*3 4.92 C 11.3 km/h
723 14-04-2019 12:10:00 7.3 C 5.85 g/m*3 4.9 C 12.9 km/h
724 14-04-2019 12:15:00 7.4 C 5.73 g/m*3 5.58 C 9.7 km/h
725 14-04-2019 12:20:00 7.6 C 5.88 g/m*3 5.02 C 14.5 km/h
Sensor: Nr:Datum:Temp:Abs-Feuchte:Windchill:Wind:
Aussen-T/F 726 14-04-2019 12:25:00 7.7 C 5.68 g/m*3 5.15 C 14.5 km/h
727 14-04-2019 12:30:00 7.8 C 5.47 g/m*3 5.77 C 11.3 km/h
728 14-04-2019 12:35:00 7.9 C 5.42 g/m*3 5.89 C 11.3 km/h
729 14-04-2019 12:40:00 8 C 5.54 g/m*3 6.3 C 9.7 km/h
730 14-04-2019 12:45:00 8.2 C 5.53 g/m*3 5.99 C 12.9 km/h
731 14-04-2019 12:50:00 8.3 C 5.39 g/m*3 6.12 C 12.9 km/h
732 14-04-2019 12:55:00 8.4 C 5.51 g/m*3 7.52 C 6.4 km/h
733 14-04-2019 13:00:00 8.4 C 5.34 g/m*3 7.52 C 6.4 km/h
734 14-04-2019 13:05:00 8.5 C 5.46 g/m*3 7.64 C 6.4 km/h
735 14-04-2019 13:10:00 8.6 C 5.16 g/m*3 7.01 C 9.7 km/h
736 14-04-2019 13:15:00 8.6 C 4.98 g/m*3 6.25 C 14.5 km/h
737 14-04-2019 13:20:00 8.6 C 5.07 g/m*3 6.48 C 12.9 km/h
738 14-04-2019 13:25:00 8.7 C 5.1 g/m*3 7.13 C 9.7 km/h
739 14-04-2019 13:30:00 8.8 C 5.05 g/m*3 6.97 C 11.3 km/h
740 14-04-2019 13:35:00 9.2 C 5.27 g/m*3 8.45 C 6.4 km/h
741 14-04-2019 13:40:00 9.4 C 5.16 g/m*3 8.28 C 8.1 km/h
742 14-04-2019 13:45:00 9.6 C 5.13 g/m*3 7.7 C 12.9 km/h
743 14-04-2019 13:50:00 9.8 C 5.01 g/m*3 7.36 C 17.7 km/h
744 14-04-2019 13:55:00 9.7 C 4.89 g/m*3 7.07 C 19.3 km/h
745 14-04-2019 14:00:00 9.8 C 4.92 g/m*3 7.19 C 19.3 km/h
746 14-04-2019 14:05:00 9.9 C 5.14 g/m*3 8.87 C 8.1 km/h
747 14-04-2019 14:10:00 10.2 C 4.95 g/m*3 8.22 C 14.5 km/h
748 14-04-2019 14:15:00 10.3 C 5.08 g/m*3 8.55 C 12.9 km/h
749 14-04-2019 14:20:00 10.4 C 5.01 g/m*3 8.9 C 11.3 km/h
750 14-04-2019 14:25:00 10.6 C 5.08 g/m*3 9.14 C 11.3 km/h
Sensor: Nr:Datum:Temp:Abs-Feuchte:Windchill:Wind:
Aussen-T/F 751 14-04-2019 14:30:00 10.8 C 5.24 g/m*3 9.16 C 12.9 km/h
752 14-04-2019 14:35:00 10.7 C 5.11 g/m*3 8.84 C 14.5 km/h
753 14-04-2019 14:40:00 10.5 C 5.14 g/m*3 8.59 C 14.5 km/h
754 14-04-2019 14:45:00 10.6 C 5.08 g/m*3 8.92 C 12.9 km/h
755 14-04-2019 14:50:00 10.7 C 4.81 g/m*3 8.84 C 14.5 km/h
756 14-04-2019 14:55:00 10.7 C 5.01 g/m*3 8.65 C 16.1 km/h
757 14-04-2019 15:00:00 10.8 C 4.94 g/m*3 8.04 C 24.1 km/h
758 14-04-2019 15:05:00 11.2 C 5.17 g/m*3 11.2 C 4.8 km/h
759 14-04-2019 15:10:00 11.3 C 5.1 g/m*3 11.3 C 9.7 km/h
760 14-04-2019 15:15:00 11.4 C 4.82 g/m*3 11.4 C 11.3 km/h
761 14-04-2019 15:20:00 11.4 C 4.82 g/m*3 11.4 C 14.5 km/h
762 14-04-2019 15:25:00 11.4 C 4.93 g/m*3 11.4 C 12.9 km/h
763 14-04-2019 15:30:00 11.5 C 4.96 g/m*3 11.5 C 11.3 km/h
764 14-04-2019 15:35:00 11.6 C 5.3 g/m*3 11.6 C 12.9 km/h
765 14-04-2019 15:40:00 11.8 C 4.95 g/m*3 11.8 C 12.9 km/h
766 14-04-2019 15:45:00 11.9 C 4.98 g/m*3 11.9 C 16.1 km/h
767 14-04-2019 15:50:00 11.7 C 4.92 g/m*3 11.7 C 14.5 km/h
768 14-04-2019 15:55:00 11.6 C 4.99 g/m*3 11.6 C 9.7 km/h
769 14-04-2019 16:00:00 11.8 C 5.16 g/m*3 11.8 C 12.9 km/h
770 14-04-2019 16:05:00 12.2 C 4.96 g/m*3 12.2 C 9.7 km/h
771 14-04-2019 16:10:00 12.1 C 5.04 g/m*3 12.1 C 14.5 km/h
772 14-04-2019 16:15:00 11.9 C 4.98 g/m*3 11.9 C 9.7 km/h
773 14-04-2019 16:20:00 11.8 C 4.84 g/m*3 11.8 C 12.9 km/h
774 14-04-2019 16:25:00 11.5 C 4.75 g/m*3 11.5 C 12.9 km/h
775 14-04-2019 16:30:00 11.6 C 4.78 g/m*3 11.6 C 16.1 km/h
Sensor: Nr:Datum:Temp:Abs-Feuchte:Windchill:Wind:
Aussen-T/F 776 14-04-2019 16:35:00 11.9 C 4.66 g/m*3 11.9 C 9.7 km/h
777 14-04-2019 16:40:00 12.2 C 4.96 g/m*3 12.2 C 9.7 km/h
778 14-04-2019 16:45:00 12.6 C 4.98 g/m*3 12.6 C 14.5 km/h
779 14-04-2019 16:50:00 12.8 C 4.93 g/m*3 12.8 C 16.1 km/h
780 14-04-2019 16:55:00 12.6 C 4.76 g/m*3 12.6 C 12.9 km/h
781 14-04-2019 17:00:00 12.2 C 4.53 g/m*3 12.2 C 12.9 km/h
782 14-04-2019 17:05:00 12.2 C 4.75 g/m*3 12.2 C 11.3 km/h
783 14-04-2019 17:10:00 12.6 C 5.2 g/m*3 12.6 C 6.4 km/h
784 14-04-2019 17:15:00 12.7 C 4.79 g/m*3 12.7 C 17.7 km/h
785 14-04-2019 17:20:00 12.6 C 4.76 g/m*3 12.6 C 17.7 km/h
786 14-04-2019 17:25:00 12.6 C 4.87 g/m*3 12.6 C 12.9 km/h
787 14-04-2019 17:30:00 12.7 C 4.68 g/m*3 12.7 C 9.7 km/h
788 14-04-2019 17:35:00 12.8 C 4.82 g/m*3 12.8 C 12.9 km/h
789 14-04-2019 17:40:00 13.1 C 4.91 g/m*3 13.1 C 16.1 km/h
790 14-04-2019 17:45:00 12.7 C 4.79 g/m*3 12.7 C 22.5 km/h
791 14-04-2019 17:50:00 12.1 C 4.83 g/m*3 12.1 C 12.9 km/h
792 14-04-2019 17:55:00 11.8 C 4.84 g/m*3 11.8 C 11.3 km/h
793 14-04-2019 18:00:00 11.9 C 4.98 g/m*3 11.9 C 11.3 km/h
794 14-04-2019 18:05:00 12.2 C 4.86 g/m*3 12.2 C 6.4 km/h
795 14-04-2019 18:10:00 12.4 C 4.81 g/m*3 12.4 C 9.7 km/h
796 14-04-2019 18:15:00 12.3 C 4.67 g/m*3 12.3 C 14.5 km/h
797 14-04-2019 18:20:00 12.2 C 4.75 g/m*3 12.2 C 16.1 km/h
798 14-04-2019 18:25:00 12 C 4.8 g/m*3 12 C 14.5 km/h
799 14-04-2019 18:30:00 12 C 4.8 g/m*3 12 C 14.5 km/h
800 14-04-2019 18:35:00 12.1 C 4.93 g/m*3 12.1 C 12.9 km/h
Sensor: Nr:Datum:Temp:Abs-Feuchte:Windchill:Wind:
Aussen-T/F 801 14-04-2019 18:40:00 12.1 C 4.93 g/m*3 12.1 C 17.7 km/h
802 14-04-2019 18:45:00 11.9 C 4.87 g/m*3 11.9 C 14.5 km/h
803 14-04-2019 18:50:00 11.9 C 4.98 g/m*3 11.9 C 9.7 km/h
804 14-04-2019 18:55:00 11.8 C 5.05 g/m*3 11.8 C 9.7 km/h
805 14-04-2019 19:00:00 11.9 C 5.08 g/m*3 11.9 C 9.7 km/h
806 14-04-2019 19:05:00 11.7 C 5.02 g/m*3 11.7 C 11.3 km/h
807 14-04-2019 19:10:00 11.6 C 5.09 g/m*3 11.6 C 16.1 km/h
808 14-04-2019 19:15:00 11.4 C 5.03 g/m*3 11.4 C 14.5 km/h
809 14-04-2019 19:20:00 11.3 C 5.1 g/m*3 11.3 C 9.7 km/h
810 14-04-2019 19:25:00 11.1 C 5.24 g/m*3 11.1 C 12.9 km/h
811 14-04-2019 19:30:00 10.9 C 5.17 g/m*3 9.76 C 9.7 km/h
812 14-04-2019 19:35:00 10.7 C 5.21 g/m*3 9.81 C 8.1 km/h
813 14-04-2019 19:40:00 10.6 C 5.27 g/m*3 10.06 C 6.4 km/h
814 14-04-2019 19:45:00 10.4 C 5.4 g/m*3 9.83 C 6.4 km/h
815 14-04-2019 19:50:00 10.2 C 5.23 g/m*3 9.6 C 6.4 km/h
816 14-04-2019 19:55:00 10.1 C 5.2 g/m*3 10.1 C 4.8 km/h
817 14-04-2019 20:00:00 9.8 C 5.38 g/m*3 9.8 C 1.6 km/h
818 14-04-2019 20:05:00 9.6 C 5.31 g/m*3 8.52 C 8.1 km/h
819 14-04-2019 20:10:00 9.3 C 5.3 g/m*3 9.3 C 0 km/h
820 14-04-2019 20:15:00 9 C 5.2 g/m*3 9 C 1.6 km/h
821 14-04-2019 20:20:00 8.7 C 5.28 g/m*3 8.7 C 3.2 km/h
822 14-04-2019 20:25:00 8.3 C 5.39 g/m*3 8.3 C 0 km/h
823 14-04-2019 20:30:00 8 C 5.46 g/m*3 8 C 3.2 km/h
824 14-04-2019 20:35:00 7.7 C 5.51 g/m*3 7.7 C 1.6 km/h
825 14-04-2019 20:40:00 7.4 C 5.49 g/m*3 7.4 C 0 km/h
Sensor: Nr:Datum:Temp:Abs-Feuchte:Windchill:Wind:
Aussen-T/F 826 14-04-2019 20:45:00 7.2 C 5.49 g/m*3 7.2 C 1.6 km/h
827 14-04-2019 20:50:00 7.1 C 5.46 g/m*3 7.1 C 1.6 km/h
828 14-04-2019 20:55:00 6.9 C 5.39 g/m*3 5.79 C 6.4 km/h
829 14-04-2019 21:00:00 6.8 C 5.35 g/m*3 6.8 C 3.2 km/h
830 14-04-2019 21:05:00 6.7 C 5.47 g/m*3 5.11 C 8.1 km/h
831 14-04-2019 21:10:00 6.6 C 5.51 g/m*3 6.6 C 4.8 km/h
832 14-04-2019 21:15:00 6.4 C 5.51 g/m*3 6.4 C 3.2 km/h
833 14-04-2019 21:20:00 6.2 C 5.52 g/m*3 6.2 C 1.6 km/h
834 14-04-2019 21:25:00 6 C 5.52 g/m*3 6 C 0 km/h
835 14-04-2019 21:30:00 5.8 C 5.52 g/m*3 5.8 C 3.2 km/h
836 14-04-2019 21:35:00 5.6 C 5.51 g/m*3 5.6 C 0 km/h
837 14-04-2019 21:40:00 5.4 C 5.51 g/m*3 5.4 C 1.6 km/h
838 14-04-2019 21:45:00 5.3 C 5.54 g/m*3 5.3 C 0 km/h
839 14-04-2019 21:50:00 5.2 C 5.51 g/m*3 5.2 C 0 km/h
840 14-04-2019 21:55:00 5.1 C 5.47 g/m*3 5.1 C 0 km/h
841 14-04-2019 22:00:00 5 C 5.5 g/m*3 5 C 0 km/h
842 14-04-2019 22:05:00 4.9 C 5.47 g/m*3 4.9 C 0 km/h
843 14-04-2019 22:10:00 4.8 C 5.43 g/m*3 4.8 C 0 km/h
844 14-04-2019 22:15:00 4.8 C 5.43 g/m*3 4.8 C 1.6 km/h
845 14-04-2019 22:20:00 4.7 C 5.46 g/m*3 4.7 C 0 km/h
846 14-04-2019 22:25:00 4.7 C 5.46 g/m*3 4.7 C 3.2 km/h
847 14-04-2019 22:30:00 4.6 C 5.43 g/m*3 4.6 C 3.2 km/h
848 14-04-2019 22:35:00 4.5 C 5.39 g/m*3 4.5 C 3.2 km/h
849 14-04-2019 22:40:00 4.4 C 5.35 g/m*3 4.4 C 4.8 km/h
850 14-04-2019 22:45:00 4.4 C 5.35 g/m*3 4.4 C 0 km/h
Sensor: Nr:Datum:Temp:Abs-Feuchte:Windchill:Wind:
Aussen-T/F 851 14-04-2019 22:50:00 4.3 C 5.38 g/m*3 4.3 C 3.2 km/h
852 14-04-2019 22:55:00 4.3 C 5.38 g/m*3 4.3 C 3.2 km/h
853 14-04-2019 23:00:00 4.2 C 5.35 g/m*3 2.67 C 6.4 km/h
854 14-04-2019 23:05:00 4.2 C 5.41 g/m*3 4.2 C 1.6 km/h
855 14-04-2019 23:10:00 4.2 C 5.41 g/m*3 4.2 C 3.2 km/h
856 14-04-2019 23:15:00 4.1 C 5.38 g/m*3 4.1 C 3.2 km/h
857 14-04-2019 23:20:00 4.1 C 5.38 g/m*3 4.1 C 4.8 km/h
858 14-04-2019 23:25:00 4 C 5.34 g/m*3 4 C 0 km/h
859 14-04-2019 23:30:00 3.9 C 5.37 g/m*3 3.9 C 0 km/h
860 14-04-2019 23:35:00 4 C 5.4 g/m*3 4 C 0 km/h
861 14-04-2019 23:40:00 4 C 5.4 g/m*3 4 C 0 km/h
862 14-04-2019 23:45:00 4 C 5.4 g/m*3 4 C 0 km/h
863 14-04-2019 23:50:00 4 C 5.4 g/m*3 4 C 0 km/h
864 14-04-2019 23:55:00 4.1 C 5.44 g/m*3 4.1 C 0 km/h

Legende:
   Min
   Max


Maximal/Minimal-Werte vom 12.04.2019 - 14.04.2019

Sensor Min Max Avg
Temp
(Aussen-T/F)
0.3 °C
14-04-2019  00:50:00
13.1 °C
14-04-2019  17:40:00
4.8 °C
Abs-Feuchte
(Aussen-T/F)
3.51 g/m*3
12-04-2019  17:50:00
6.4 g/m*3
14-04-2019  11:10:00
4.62 g/m*3
Windchill
(Aussen-T/F)
0.05 C
13-04-2019  04:10:00
13.1 C
14-04-2019  17:40:00
3.94 C

Die Daten stammen von einer Davis Vantage Pro 2 Wetter-Station und werden unter Linux mit der Software wview2wettercgi und aufbereitet. Alle Angaben erfolgen ohne Gewähr für ihre Vollständigkeit oder Richtigkeit.
Kontakt: Rainer Krienke krienke@uni-koblenz.de . Meine Webseiten an der Uni Koblenz oder privat.
Version: $Revision: 0.78 $